КЛИМАТИЧНИ ДАННИ

ВЧЕРА
Time Temp. Dewp. Hum. Посока н Скорост на Пориви на Bar.
00:04 -0.8 -3.8 78 0 0 1020.9
00:13 -0.9 -3.9 78 0 0 1020.6
00:23 -0.9 -3.9 78 0 0 1020.6
00:34 -1 -4 78 0 0 1020.6
00:44 -1.2 -4.2 78 0 0 1020.5
00:54 -1.3 -4.3 78 0 0 1020.5
01:03 -1.4 -4.4 78 0 0 1020.4
01:14 -1.5 -4.5 78 0 0 1020.3
01:24 -1.6 -4.5 78 0 0 1020.1
01:34 -1.7 -4.6 78 0 0 1020.1
01:44 -1.8 -4.7 78 0 0 1020.1
01:54 -1.8 -4.6 79 0 0 1019.9
02:04 -1.9 -4.7 79 0 0 1020.1
02:14 -2 -4.8 79 0 0 1020.1
02:25 -2.1 -4.9 79 0 0 1020.1
02:34 -2.2 -5 79 0 0 1020.1
02:44 -2.3 -5.1 79 0 0 1019.8
02:54 -2.5 -5.3 79 0 0 1019.9
03:05 -2.5 -5.3 79 0 0 1019.8
03:15 -2.4 -5.2 79 0 0 1019.8
03:24 -2.2 -4.8 80 0 0 1019.6
03:35 -2.1 -4.7 80 0 0 1019.4
03:45 -1.9 -4.4 81 0 0 1019.4
03:55 -1.8 -4.3 81 0 0 1019.3
04:05 -1.8 -4.3 81 0 0 1019.4
04:15 -1.8 -4.3 81 0 0 1019.4
04:25 -1.9 -4.4 81 0 0 1019.3
04:35 -2 -4.5 81 0 0 1019.3
04:46 -2 -4.5 81 0 0 1019.3
04:55 -2 -4.6 80 0 0 1019.3
05:05 -2.1 -4.7 80 0 0 1019.3
05:15 -2.1 -4.7 80 0 0 1019
05:26 -2.1 -4.6 81 0 0 1019.3
05:35 -2.1 -4.6 81 0 0 1019.2
05:45 -2.1 -4.6 81 0 0 1019
05:56 -2.1 -4.6 81 0 0 1019.3
06:06 -2 -4.5 81 0 0 1019.4
06:16 -2 -4.5 81 0 0 1019.2
06:26 -2 -4.5 81 0 0 1019.2
06:36 -2 -4.5 81 0 0 1019.3
06:46 -2 -4.5 81 0 0 1019.3
06:56 -2 -4.5 81 0 0 1019.3
07:07 -2.1 -4.6 81 0 0 1019.3
07:16 -2.2 -4.7 81 0 0 1019.4
07:26 -2.3 -4.8 81 0 0 1019.5
07:36 -2.5 -5 81 0 0 1019.5
07:47 -2.5 -5 81 0 0 1019.6
07:57 -2.5 -5 81 0 0 1019.6
08:06 -2.5 -5 81 0 0 1019.8
08:17 -2.6 -5.1 81 0 0 1019.7
08:27 -2.6 -5.1 81 0 0 1019.7
08:37 -2.6 -5.1 81 0 0 1019.6
08:46 -2.5 -4.8 82 0 0 1019.5
08:57 -2.5 -4.8 82 0 0 1019.4
09:07 -2.4 -4.7 82 0 0 1019.5
09:17 -2.2 -4.5 82 0 0 1019.4
09:28 -2.1 -4.5 82 0 0 1019.6
09:37 -1.8 -4 83 0 0 1019.6
09:47 -1.4 -3.6 83 0 0 1019.5
09:57 -1.1 -3.3 83 0 0 1019.4
10:08 -0.9 -3.3 82 0 0 1019.5
10:18 -0.6 -2.8 83 0 0 1019.5
10:27 -0.1 -2.3 83 0 0 1019.6
10:38 0.3 -2 83 0 0 1019.6
10:48 0.8 -1.7 82 0 0 1019.4
10:58 1.2 -1.3 82 0 0 1019.5
11:07 1.7 -0.9 82 0 0 1019.4
11:18 2.1 -0.7 81 0 0 1019.4
11:28 2.3 -0.8 79 0 0 1019.2
11:38 2.5 -0.8 78 0 0 1018.9
11:48 2.6 -0.7 78 0 0 1019
11:58 2.8 -0.7 77 0 0 1018.9
12:08 2.9 -0.6 77 0 0 1018.7
12:18 3 -0.7 76 0 0 1018.7
12:29 3.2 -0.5 76 0 0 1018.6
12:39 3.6 -0.2 76 0 0 1018.5
12:48 3.9 -0.1 75 0 0 1018.5
12:59 4.1 -0.1 74 0 0 1018.2
13:09 4.2 -0.2 73 0 0 1018
13:19 4.5 0.1 73 0 0 1018
13:29 5.2 0.8 73 0 0 1017.9
13:39 5.9 1.2 72 0 0 1017.6
13:49 6.4 1.3 70 0 0 1017.6
13:59 6.8 1.3 68 0 0 1017.4
14:09 7.1 1.2 66 0 0 1017.4
14:19 6.9 1 66 0 0 1017.6
14:29 6.7 0.8 66 0 0 1017.4
14:45 6.5 0.6 66 0 0 1017.4
14:55 6.3 0.6 67 0 0 1017.2
15:05 6.2 0.3 66 0 0 1017.3
15:15 6 0.3 67 0 0 1017.4
15:25 6 0.3 67 0 0 1017.3
15:35 5.9 0.2 67 0 0 1017.4
15:45 5.9 0.5 68 0 0 1017.3
15:55 5.9 0.2 67 0 0 1017.3
16:05 5.8 0.4 68 0 0 1017.3
16:15 5.7 0.3 68 0 0 1017.2
16:25 5.6 0.2 68 0 0 1017.2
16:36 5.4 0 68 0 0 1017.2
16:45 5.2 -0.2 68 0 0 1017.1
16:55 5 -0.2 69 0 0 1017.1
17:05 4.7 -0.4 69 0 0 1017
17:16 4.2 -0.9 69 0 0 1017.2
17:26 3.8 -1 70 0 0 1017.2
17:35 3.6 -1.2 70 0 0 1017.3
17:46 3.3 -1.3 71 0 0 1017.4
17:56 3 -1.5 71 0 0 1017.4
18:06 2.7 -1.6 72 0 0 1017.4
18:16 2.5 -1.6 73 0 0 1017.6
18:26 2.4 -1.7 73 0 0 1017.6
18:36 2.3 -1.8 73 0 0 1017.4
18:46 2.2 -1.7 74 0 0 1017.6
18:57 2.1 -1.8 74 0 0 1017.6
19:06 2 -1.7 75 0 0 1017.6
19:16 1.9 -1.8 75 0 0 1017.3
19:26 1.9 -1.8 75 0 0 1017.6
19:37 1.8 -1.9 75 0 0 1017.6
19:47 1.7 -2 75 0 0 1017.4
19:56 1.6 -2.1 75 0 0 1017.6
20:07 1.5 -2 76 0 0 1017.7
20:17 1.5 -2 76 0 0 1017.6
20:27 1.5 -2 76 0 0 1017.7
20:37 1.4 -2.1 76 0 0 1017.8
20:47 1.2 -2.3 76 0 0 1017.7
20:57 1.1 -2.3 76 0 0 1017.8
21:07 1 -2.4 76 0 0 1017.8
21:18 0.9 -2.4 77 0 0 1017.9
21:27 0.9 -2.4 77 0 0 1017.8
21:37 0.8 -2.4 77 0 0 1017.8
21:47 0.8 -2.4 77 0 0 1017.8
21:58 0.8 -2.3 78 0 0 1017.8
22:07 0.8 -2.3 78 0 0 1017.7
22:17 0.8 -2.3 78 0 0 1017.4
22:28 0.8 -2.3 78 0 0 1017.4
22:38 0.8 -2.1 79 0 0 1017.4
22:48 0.7 -2.4 78 0 0 1017.4
22:58 0.5 -2.6 78 0 0 1017.6
23:08 0.2 -2.8 78 0 0 1017.6
23:18 0 -3 78 0 0 1017.6
23:28 -0.1 -3.1 78 0 0 1017.6
23:38 -0.3 -3.1 79 0 0 1017.6
23:48 -0.5 -3.3 79 0 0 1017.6
23:58 -0.6 -3.4 79 0 0 1017.7

ДНЕВНИ СТАТИСТИКИ

2020-01-26
ТЕМПЕРАТУРА
СРЕДНО
0.8
ВИСОКО
7.1
14:09
МИНИМУМ
-2.6
08:17
АТМОСФЕРНО НАЛЯГАНЕ
СРЕДНО
1018.6
ВИСОКО
1020.9
00:04
МИНИМУМ
1017.0
17:05
ТОЧКА НА ОРОСЯВАНЕ
СРЕДНО
-2.6
ВИСОКО
1.3
13:49
МИНИМУМ
-5.3
02:54
ОТНОСИТЕЛНА ВЛАЖНОСТ
СРЕДНО
77
ВИСОКО
83
09:37
МИНИМУМ
66
14:09
СКОРОСТ НА ВЯТЪРА
СРЕДНО
0.0
ВИСОКО
0.0
15:54
ПОРИВИ НА ВЯТЪРА
СРЕДНО
0.0
ВИСОКО
0.0
15:54
ПОСОКА НА ВЯТЪРА
PREVAILING
%
ТЕМПЕРАТУРА (°C)
МИНИМУМ
-2.6
ВИСОКО
7.1
СРЕДНО
0.8
АТМОСФЕРНО НАЛЯГАНЕ (hpa)
МИНИМУМ
1017.0
ВИСОКО
1020.9
СРЕДНО
1018.6
DEVICE